Time;durP1;ratioP1;P1;durP2;ratioP2;P2;SDS_P1;SDS_P2;PMS_P1;PMS_P2;Temp;Humidity;BMP_temperature;BMP_pressure;BME280_temperature;BME280_humidity;BME280_pressure;Samples;Min_cycle;Max_cycle;Signal;HPM_P1;HPM_P2
2022/05/08 00:00:31;;;;;;;21.15;5.00;;;;;;;;;;4913418;29;20044;-90
2022/05/08 00:03:00;;;;;;;21.98;5.10;;;;;;;;;;4913024;29;20055;-89
2022/05/08 00:05:27;;;;;;;21.10;4.97;;;;;;;;;;4897450;29;20055;-90
2022/05/08 00:07:53;;;;;;;20.30;5.50;;;;;;;;;;4919807;29;20036;-90
2022/05/08 00:10:20;;;;;;;17.15;5.10;;;;;;;;;;4922429;29;20028;-90
2022/05/08 00:12:46;;;;;;;20.17;5.32;;;;;;;;;;4928253;29;20056;-90
2022/05/08 00:15:12;;;;;;;20.55;4.82;;;;;;;;;;4913925;29;20048;-89
2022/05/08 00:17:41;;;;;;;16.48;4.55;;;;;;;;;;4913698;29;20133;-90
2022/05/08 00:20:08;;;;;;;23.70;5.10;;;;;;;;;;4913739;29;20052;-90
2022/05/08 00:22:34;;;;;;;21.02;5.13;;;;;;;;;;4913247;29;20047;-90
2022/05/08 00:25:02;;;;;;;18.00;6.03;;;;;;;;;;4913601;29;20131;-89
2022/05/08 00:27:28;;;;;;;21.45;5.35;;;;;;;;;;4913607;29;20040;-90
2022/05/08 00:29:54;;;;;;;18.58;5.05;;;;;;;;;;4898220;29;20047;-90
2022/05/08 00:32:21;;;;;;;19.77;5.28;;;;;;;;;;4897711;29;20056;-88
2022/05/08 00:34:47;;;;;;;23.00;5.10;;;;;;;;;;4898020;29;20489;-89
2022/05/08 00:37:13;;;;;;;22.88;5.45;;;;;;;;;;4904359;29;20096;-92
2022/05/08 00:39:39;;;;;;;19.67;5.47;;;;;;;;;;4921921;29;20040;-92
2022/05/08 00:42:05;;;;;;;18.60;5.32;;;;;;;;;;4937586;29;20032;-91
2022/05/08 00:44:31;;;;;;;20.25;4.90;;;;;;;;;;4921707;29;20060;-90
2022/05/08 00:46:57;;;;;;;19.42;5.32;;;;;;;;;;4937415;29;20040;-90
2022/05/08 00:49:23;;;;;;;22.95;4.97;;;;;;;;;;4937654;29;20516;-90
2022/05/08 00:51:49;;;;;;;19.55;5.20;;;;;;;;;;4922204;29;20035;-91
2022/05/08 00:54:16;;;;;;;15.55;4.80;;;;;;;;;;4940565;29;20040;-91
2022/05/08 00:56:42;;;;;;;21.38;5.15;;;;;;;;;;4924883;29;20041;-91
2022/05/08 00:59:11;;;;;;;21.50;5.43;;;;;;;;;;4941097;29;20028;-91
2022/05/08 01:01:38;;;;;;;17.63;5.45;;;;;;;;;;4924817;29;20091;-91
2022/05/08 01:04:04;;;;;;;17.88;5.05;;;;;;;;;;4940376;29;20028;-91
2022/05/08 01:06:31;;;;;;;22.30;5.35;;;;;;;;;;4924728;29;20052;-91
2022/05/08 01:08:57;;;;;;;22.48;5.07;;;;;;;;;;4924646;29;20043;-89
2022/05/08 01:11:23;;;;;;;20.33;4.93;;;;;;;;;;4940438;29;20052;-90
2022/05/08 01:13:49;;;;;;;16.40;4.70;;;;;;;;;;4935083;29;20100;-90
2022/05/08 01:16:16;;;;;;;14.80;4.32;;;;;;;;;;4923815;29;20044;-92
2022/05/08 01:18:44;;;;;;;20.70;5.00;;;;;;;;;;4913162;29;20052;-90
2022/05/08 01:21:11;;;;;;;17.83;5.25;;;;;;;;;;4938252;29;20028;-91
2022/05/08 01:23:40;;;;;;;20.25;4.95;;;;;;;;;;4922608;29;20040;-90
2022/05/08 01:26:10;;;;;;;20.63;4.93;;;;;;;;;;4921333;29;20032;-90
2022/05/08 01:28:37;;;;;;;19.25;4.75;;;;;;;;;;4920660;29;20042;-90
2022/05/08 01:31:03;;;;;;;19.95;4.60;;;;;;;;;;4919549;29;20036;-89
2022/05/08 01:33:29;;;;;;;16.70;4.32;;;;;;;;;;4917566;29;20024;-90
2022/05/08 01:35:56;;;;;;;21.73;4.60;;;;;;;;;;4933870;29;20043;-90
2022/05/08 01:38:23;;;;;;;17.85;4.60;;;;;;;;;;4934411;29;20028;-91
2022/05/08 01:40:50;;;;;;;15.65;3.88;;;;;;;;;;4930984;29;20044;-90
2022/05/08 01:43:16;;;;;;;21.15;5.38;;;;;;;;;;4899745;29;20048;-89
2022/05/08 01:45:42;;;;;;;27.08;5.25;;;;;;;;;;4915684;29;20160;-90
2022/05/08 01:48:25;;;;;;;20.17;5.20;;;;;;;;;;4899532;29;20087;-91
2022/05/08 01:50:59;;;;;;;19.83;5.22;;;;;;;;;;4899899;29;20044;-88
2022/05/08 01:53:33;;;;;;;15.45;4.07;;;;;;;;;;4899401;29;20564;-90
2022/05/08 01:55:59;;;;;;;20.80;4.38;;;;;;;;;;4899739;29;20047;-89
2022/05/08 01:58:27;;;;;;;16.05;4.32;;;;;;;;;;4915261;29;20051;-90
2022/05/08 02:00:54;;;;;;;22.42;4.75;;;;;;;;;;4915505;29;20076;-91
2022/05/08 02:03:21;;;;;;;17.52;4.43;;;;;;;;;;4916790;29;20099;-90
2022/05/08 02:05:47;;;;;;;15.77;4.68;;;;;;;;;;4919045;29;20062;-90
2022/05/08 02:08:13;;;;;;;18.65;4.90;;;;;;;;;;4918529;29;20499;-88
2022/05/08 02:10:39;;;;;;;14.73;4.80;;;;;;;;;;4918855;29;20125;-90
2022/05/08 02:13:07;;;;;;;17.45;5.05;;;;;;;;;;4919228;29;20269;-88
2022/05/08 02:15:36;;;;;;;18.60;4.97;;;;;;;;;;4902885;29;20495;-91
2022/05/08 02:18:03;;;;;;;23.88;4.68;;;;;;;;;;4918658;29;20040;-90
2022/05/08 02:20:29;;;;;;;19.45;4.93;;;;;;;;;;4903331;29;20036;-90
2022/05/08 02:22:56;;;;;;;16.83;4.63;;;;;;;;;;4918278;29;20075;-89
2022/05/08 02:25:22;;;;;;;13.38;4.30;;;;;;;;;;4918495;29;20054;-90
2022/05/08 02:27:52;;;;;;;19.23;4.65;;;;;;;;;;4902738;29;20040;-91
2022/05/08 02:30:19;;;;;;;16.77;4.05;;;;;;;;;;4918366;29;20484;-91
2022/05/08 02:32:45;;;;;;;15.50;3.72;;;;;;;;;;4918320;29;20040;-90
2022/05/08 02:35:11;;;;;;;12.00;3.42;;;;;;;;;;4902445;29;20048;-91
2022/05/08 02:37:38;;;;;;;15.35;3.40;;;;;;;;;;4918457;29;20134;-91
2022/05/08 02:40:11;;;;;;;12.73;3.35;;;;;;;;;;4902398;29;20537;-90
2022/05/08 02:42:37;;;;;;;16.80;3.90;;;;;;;;;;4902453;29;20052;-90
2022/05/08 02:45:08;;;;;;;13.63;3.70;;;;;;;;;;4917835;29;20059;-89
2022/05/08 02:47:35;;;;;;;13.70;3.80;;;;;;;;;;4902151;29;20044;-89
2022/05/08 02:50:01;;;;;;;16.52;4.13;;;;;;;;;;4917783;29;20127;-89
2022/05/08 02:52:28;;;;;;;10.70;3.35;;;;;;;;;;4902056;29;20048;-90
2022/05/08 02:54:54;;;;;;;17.27;4.10;;;;;;;;;;4917957;29;20059;-90
2022/05/08 03:00:06;;;;;;;10.98;3.58;;;;;;;;;;4902336;29;20048;-88
2022/05/08 03:02:36;;;;;;;13.90;3.95;;;;;;;;;;4902170;29;20055;-91
2022/05/08 03:05:05;;;;;;;12.48;4.10;;;;;;;;;;4901712;29;20200;-89
2022/05/08 03:07:31;;;;;;;15.30;3.42;;;;;;;;;;4902134;29;20476;-91
2022/05/08 03:09:57;;;;;;;12.30;3.08;;;;;;;;;;4901942;29;20047;-90
2022/05/08 03:12:24;;;;;;;13.70;3.75;;;;;;;;;;4902107;29;20044;-90
2022/05/08 03:14:51;;;;;;;15.32;4.10;;;;;;;;;;4917019;29;20044;-90
2022/05/08 03:17:17;;;;;;;13.88;3.17;;;;;;;;;;4917734;29;20044;-90
2022/05/08 03:19:46;;;;;;;14.88;3.65;;;;;;;;;;4901889;29;20091;-91
2022/05/08 03:22:14;;;;;;;15.23;4.22;;;;;;;;;;4917587;29;20044;-90
2022/05/08 03:24:40;;;;;;;15.88;3.83;;;;;;;;;;4917098;29;20501;-89
2022/05/08 03:27:06;;;;;;;16.98;3.85;;;;;;;;;;4917283;29;20051;-88
2022/05/08 03:29:32;;;;;;;15.63;3.80;;;;;;;;;;4901470;29;20044;-90
2022/05/08 03:31:58;;;;;;;11.98;3.42;;;;;;;;;;4901505;29;20044;-91
2022/05/08 03:34:24;;;;;;;11.98;3.60;;;;;;;;;;4901816;29;20087;-89
2022/05/08 03:36:51;;;;;;;13.18;3.60;;;;;;;;;;4917281;29;20519;-90
2022/05/08 03:39:17;;;;;;;11.90;3.25;;;;;;;;;;4901597;29;20134;-91
2022/05/08 03:41:43;;;;;;;18.58;3.45;;;;;;;;;;4917824;29;20135;-91
2022/05/08 03:44:09;;;;;;;16.25;3.80;;;;;;;;;;4901923;29;20044;-89
2022/05/08 03:46:35;;;;;;;12.90;3.47;;;;;;;;;;4901232;29;20040;-89
2022/05/08 03:49:01;;;;;;;12.00;3.40;;;;;;;;;;4917220;29;20069;-90
2022/05/08 03:51:27;;;;;;;13.18;3.90;;;;;;;;;;4917422;29;20088;-90
2022/05/08 03:53:54;;;;;;;11.82;4.10;;;;;;;;;;4897786;29;20068;-90
2022/05/08 03:56:20;;;;;;;12.82;3.65;;;;;;;;;;4897979;29;20140;-89
2022/05/08 03:58:46;;;;;;;13.95;3.88;;;;;;;;;;4913612;29;20127;-90
2022/05/08 04:01:12;;;;;;;10.00;3.20;;;;;;;;;;4913539;29;20096;-91
2022/05/08 04:03:38;;;;;;;16.17;3.45;;;;;;;;;;4897764;29;20053;-92
2022/05/08 04:06:04;;;;;;;13.82;4.10;;;;;;;;;;4897639;29;20393;-90
2022/05/08 04:08:32;;;;;;;12.65;3.55;;;;;;;;;;4897779;29;20476;-90
2022/05/08 04:10:58;;;;;;;10.50;3.67;;;;;;;;;;4913694;29;20562;-91
2022/05/08 04:13:26;;;;;;;12.43;3.50;;;;;;;;;;4913531;29;20049;-89
2022/05/08 04:18:37;;;;;;;11.57;3.38;;;;;;;;;;4897302;29;20404;-89
2022/05/08 04:21:03;;;;;;;19.83;4.50;;;;;;;;;;4897447;29;20055;-90
2022/05/08 04:26:15;;;;;;;12.45;3.20;;;;;;;;;;4896533;29;20045;-89
2022/05/08 04:28:41;;;;;;;11.93;2.80;;;;;;;;;;4897816;29;20044;-89
2022/05/08 04:31:07;;;;;;;11.13;3.05;;;;;;;;;;4897152;29;20597;-90
2022/05/08 04:33:34;;;;;;;10.63;3.15;;;;;;;;;;4897498;29;20044;-89
2022/05/08 04:36:00;;;;;;;10.20;2.65;;;;;;;;;;4913000;29;20052;-89
2022/05/08 04:38:26;;;;;;;12.27;2.88;;;;;;;;;;4897155;29;20048;-89
2022/05/08 04:40:52;;;;;;;10.88;2.80;;;;;;;;;;4913010;29;20041;-90
2022/05/08 04:43:19;;;;;;;14.35;3.05;;;;;;;;;;4897442;29;20430;-89
2022/05/08 04:45:47;;;;;;;12.65;2.85;;;;;;;;;;4897270;29;20059;-89
2022/05/08 04:48:13;;;;;;;8.95;2.63;;;;;;;;;;4897318;29;20051;-90
2022/05/08 04:50:40;;;;;;;15.40;2.85;;;;;;;;;;4881489;29;20052;-90
2022/05/08 04:53:06;;;;;;;12.73;2.60;;;;;;;;;;4896819;29;20096;-90
2022/05/08 04:55:32;;;;;;;11.07;2.38;;;;;;;;;;4896670;29;20049;-90
2022/05/08 04:57:58;;;;;;;13.02;2.90;;;;;;;;;;4913258;29;20036;-89
2022/05/08 05:00:26;;;;;;;12.43;2.42;;;;;;;;;;4896570;29;20052;-89
2022/05/08 05:02:52;;;;;;;8.73;2.65;;;;;;;;;;4912596;29;20109;-90
2022/05/08 05:05:17;;;;;;;9.98;2.17;;;;;;;;;;4896642;29;20048;-89
2022/05/08 05:07:43;;;;;;;10.90;2.45;;;;;;;;;;4897121;29;20059;-90
2022/05/08 05:10:10;;;;;;;9.90;2.50;;;;;;;;;;4912651;29;20094;-90
2022/05/08 05:12:40;;;;;;;10.82;2.53;;;;;;;;;;4912811;29;20546;-91
2022/05/08 05:15:06;;;;;;;13.98;2.38;;;;;;;;;;4896575;29;20135;-89
2022/05/08 05:17:32;;;;;;;14.45;2.63;;;;;;;;;;4896848;29;20051;-90
2022/05/08 05:19:59;;;;;;;11.95;2.22;;;;;;;;;;4913186;29;20053;-89
2022/05/08 05:22:25;;;;;;;16.38;2.75;;;;;;;;;;4913287;29;20048;-90
2022/05/08 05:24:51;;;;;;;9.63;2.28;;;;;;;;;;4912729;29;20045;-92
2022/05/08 05:27:17;;;;;;;15.23;2.95;;;;;;;;;;4897143;29;20040;-91
2022/05/08 05:29:43;;;;;;;12.30;2.42;;;;;;;;;;4897053;29;20067;-90
2022/05/08 05:32:09;;;;;;;6.68;2.10;;;;;;;;;;4896662;29;20412;-90
2022/05/08 05:34:35;;;;;;;9.05;2.15;;;;;;;;;;4897013;29;20044;-89
2022/05/08 05:37:01;;;;;;;8.75;2.10;;;;;;;;;;4898013;29;20500;-89
2022/05/08 05:39:27;;;;;;;13.18;2.30;;;;;;;;;;4916248;29;20100;-90
2022/05/08 05:41:53;;;;;;;14.45;2.25;;;;;;;;;;4900053;29;20044;-89
2022/05/08 05:44:20;;;;;;;10.57;2.58;;;;;;;;;;4916243;29;20083;-91
2022/05/08 05:49:31;;;;;;;10.27;2.40;;;;;;;;;;4900119;29;20044;-90
2022/05/08 05:51:58;;;;;;;10.95;2.13;;;;;;;;;;4917981;29;20051;-90
2022/05/08 05:54:33;;;;;;;15.07;2.40;;;;;;;;;;4919198;29;20048;-91
2022/05/08 05:56:59;;;;;;;10.85;1.80;;;;;;;;;;4903412;29;20131;-91
2022/05/08 05:59:25;;;;;;;10.13;2.17;;;;;;;;;;4918923;29;20122;-89
2022/05/08 06:01:51;;;;;;;7.15;1.92;;;;;;;;;;4902995;29;20055;-91
2022/05/08 06:04:17;;;;;;;7.47;1.77;;;;;;;;;;4918943;29;20041;-89
2022/05/08 06:06:43;;;;;;;9.32;1.70;;;;;;;;;;4918761;29;20044;-89
2022/05/08 06:09:09;;;;;;;12.15;2.20;;;;;;;;;;4902922;29;20047;-90
2022/05/08 06:11:35;;;;;;;8.48;1.77;;;;;;;;;;4902869;29;20044;-89
2022/05/08 06:14:01;;;;;;;10.38;2.08;;;;;;;;;;4902766;29;20044;-89
2022/05/08 06:16:27;;;;;;;11.80;1.98;;;;;;;;;;4919018;29;20040;-89
2022/05/08 06:18:53;;;;;;;11.20;1.98;;;;;;;;;;4903065;29;20048;-89
2022/05/08 06:21:19;;;;;;;12.10;2.00;;;;;;;;;;4918745;29;20103;-88
2022/05/08 06:23:45;;;;;;;10.00;2.05;;;;;;;;;;4902433;29;20556;-89
2022/05/08 06:26:15;;;;;;;9.85;1.75;;;;;;;;;;4918580;29;20040;-88
2022/05/08 06:28:41;;;;;;;8.38;1.48;;;;;;;;;;4905084;29;20040;-90
2022/05/08 06:31:07;;;;;;;9.00;1.63;;;;;;;;;;4921743;29;20054;-89
2022/05/08 06:33:36;;;;;;;8.90;1.70;;;;;;;;;;4930965;29;20048;-90
2022/05/08 06:36:08;;;;;;;8.77;1.43;;;;;;;;;;4930689;29;20055;-89
2022/05/08 06:38:34;;;;;;;12.35;1.88;;;;;;;;;;4938256;29;20075;-90
2022/05/08 06:41:00;;;;;;;10.38;1.50;;;;;;;;;;4920772;29;20118;-89
2022/05/08 06:43:29;;;;;;;10.48;1.80;;;;;;;;;;4938207;29;20043;-89
2022/05/08 06:45:55;;;;;;;7.32;1.60;;;;;;;;;;4912568;29;20143;-90
2022/05/08 06:48:21;;;;;;;15.88;2.20;;;;;;;;;;4904813;29;20119;-89
2022/05/08 06:50:47;;;;;;;12.75;1.90;;;;;;;;;;4906055;29;20475;-91
2022/05/08 06:53:13;;;;;;;12.77;1.92;;;;;;;;;;4921080;29;20183;-88
2022/05/08 06:55:40;;;;;;;10.07;1.75;;;;;;;;;;4905259;29;20135;-91
2022/05/08 06:58:06;;;;;;;9.00;1.73;;;;;;;;;;4921218;29;20055;-90
2022/05/08 07:03:26;;;;;;;9.52;1.73;;;;;;;;;;4920951;29;20474;-89
2022/05/08 07:05:53;;;;;;;10.85;2.40;;;;;;;;;;4920712;29;20152;-91
2022/05/08 07:08:20;;;;;;;13.60;1.77;;;;;;;;;;4906291;29;20399;-88
2022/05/08 07:10:46;;;;;;;14.10;2.15;;;;;;;;;;4905348;29;20040;-90
2022/05/08 07:13:12;;;;;;;16.73;2.20;;;;;;;;;;4920692;29;20032;-90
2022/05/08 07:15:40;;;;;;;11.77;2.25;;;;;;;;;;4920699;29;20591;-90
2022/05/08 07:18:09;;;;;;;10.80;1.77;;;;;;;;;;4905356;29;20051;-94
2022/05/08 07:20:35;;;;;;;17.40;2.25;;;;;;;;;;4923914;29;20043;-94
2022/05/08 07:23:01;;;;;;;14.43;2.17;;;;;;;;;;4905948;29;20054;-95
2022/05/08 07:25:28;;;;;;;10.80;2.05;;;;;;;;;;4907613;29;20040;-92
2022/05/08 07:27:55;;;;;;;10.98;2.00;;;;;;;;;;4905359;29;20091;-93
2022/05/08 07:30:22;;;;;;;15.25;2.22;;;;;;;;;;4905466;29;20036;-92
2022/05/08 07:32:48;;;;;;;8.73;1.58;;;;;;;;;;4906343;29;20039;-94
2022/05/08 07:38:00;;;;;;;13.30;2.30;;;;;;;;;;4920485;29;20055;-89
2022/05/08 07:40:26;;;;;;;8.95;1.75;;;;;;;;;;4904735;29;20047;-92
2022/05/08 07:42:52;;;;;;;11.85;1.80;;;;;;;;;;4904692;29;20408;-90
2022/05/08 07:45:19;;;;;;;10.38;2.03;;;;;;;;;;4904466;29;20102;-90
2022/05/08 07:47:44;;;;;;;17.08;2.17;;;;;;;;;;4920274;29;20075;-90
2022/05/08 07:50:10;;;;;;;7.30;1.70;;;;;;;;;;4920381;29;20384;-90
2022/05/08 07:52:40;;;;;;;10.18;1.98;;;;;;;;;;4919896;29;20182;-91
2022/05/08 07:55:07;;;;;;;8.30;1.55;;;;;;;;;;4920213;29;20048;-91
2022/05/08 07:57:34;;;;;;;10.77;1.80;;;;;;;;;;4919898;29;20052;-90
2022/05/08 08:00:00;;;;;;;11.95;2.10;;;;;;;;;;4903642;29;20044;-91
2022/05/08 08:02:26;;;;;;;9.60;1.65;;;;;;;;;;4904226;29;20058;-91
2022/05/08 08:04:52;;;;;;;12.50;1.90;;;;;;;;;;4903891;29;20400;-92
2022/05/08 08:07:21;;;;;;;10.63;1.58;;;;;;;;;;4919854;29;20082;-92
2022/05/08 08:09:50;;;;;;;10.45;1.73;;;;;;;;;;4904149;29;20131;-91
2022/05/08 08:12:16;;;;;;;12.82;2.10;;;;;;;;;;4919966;29;20050;-90
2022/05/08 08:14:41;;;;;;;7.07;1.98;;;;;;;;;;4904475;29;20142;-91
2022/05/08 08:17:09;;;;;;;9.88;2.00;;;;;;;;;;4919711;29;20491;-91
2022/05/08 08:19:35;;;;;;;11.52;1.90;;;;;;;;;;4904050;29;20054;-90
2022/05/08 08:22:01;;;;;;;9.35;2.60;;;;;;;;;;4919498;29;20131;-90
2022/05/08 08:24:30;;;;;;;11.60;1.92;;;;;;;;;;4919741;29;20479;-90
2022/05/08 08:26:56;;;;;;;11.63;2.25;;;;;;;;;;4903742;29;20408;-89
2022/05/08 08:29:22;;;;;;;9.98;1.75;;;;;;;;;;4903717;29;20076;-91
2022/05/08 08:31:48;;;;;;;9.77;1.90;;;;;;;;;;4903740;29;20052;-90
2022/05/08 08:34:14;;;;;;;9.55;1.90;;;;;;;;;;4904334;29;20051;-90
2022/05/08 08:36:43;;;;;;;14.90;2.08;;;;;;;;;;4936374;29;20110;-90
2022/05/08 08:39:09;;;;;;;10.43;2.60;;;;;;;;;;4919372;29;20475;-91
2022/05/08 08:41:36;;;;;;;12.02;2.08;;;;;;;;;;4919115;29;20058;-92
2022/05/08 08:49:39;;;;;;;;;;;;;;;;;;4919699;29;20044;-92
2022/05/08 08:52:12;;;;;;;8.98;2.10;;;;;;;;;;4936284;29;19923;-91
2022/05/08 08:54:38;;;;;;;11.75;2.20;;;;;;;;;;4919153;29;20083;-89
2022/05/08 08:57:04;;;;;;;9.55;2.00;;;;;;;;;;4919076;29;20052;-90
2022/05/08 08:59:31;;;;;;;10.88;2.13;;;;;;;;;;4919261;29;20046;-90
2022/05/08 09:01:57;;;;;;;10.18;2.10;;;;;;;;;;4918712;29;20506;-92
2022/05/08 09:04:25;;;;;;;9.95;2.28;;;;;;;;;;4919156;29;20048;-94
2022/05/08 09:06:51;;;;;;;7.78;1.52;;;;;;;;;;4919576;29;20039;-92
2022/05/08 09:09:22;;;;;;;9.90;2.58;;;;;;;;;;4903744;29;20475;-91
2022/05/08 09:11:53;;;;;;;11.20;2.22;;;;;;;;;;4905199;29;20043;-90
2022/05/08 09:14:31;;;;;;;8.27;1.67;;;;;;;;;;4907105;29;20040;-91
2022/05/08 09:16:58;;;;;;;7.60;1.70;;;;;;;;;;4922916;29;20098;-90
2022/05/08 09:19:36;;;;;;;10.65;2.53;;;;;;;;;;4923061;29;20392;-90
2022/05/08 09:22:03;;;;;;;12.13;2.28;;;;;;;;;;4907748;29;20513;-91
2022/05/08 09:24:32;;;;;;;10.93;1.98;;;;;;;;;;4923497;29;20104;-91
2022/05/08 09:27:12;;;;;;;11.50;2.25;;;;;;;;;;5144976;23;20083;-91
2022/05/08 09:29:41;;;;;;;11.57;1.95;;;;;;;;;;4945314;28;20050;-89
2022/05/08 09:32:07;;;;;;;12.60;2.53;;;;;;;;;;4966853;28;20049;-91
2022/05/08 09:34:55;;;;;;;8.95;1.92;;;;;;;;;;4980906;28;20501;-89
2022/05/08 09:37:22;;;;;;;12.52;2.53;;;;;;;;;;4977222;28;20118;-92
2022/05/08 09:39:48;;;;;;;9.95;2.20;;;;;;;;;;4977336;28;20386;-90
2022/05/08 09:42:36;;;;;;;13.65;2.85;;;;;;;;;;4977027;28;20482;-91
2022/05/08 09:45:09;;;;;;;14.32;1.98;;;;;;;;;;4976737;28;20502;-90
2022/05/08 09:47:45;;;;;;;13.68;2.53;;;;;;;;;;4978374;28;20043;-90
2022/05/08 09:50:12;;;;;;;14.30;2.25;;;;;;;;;;4976710;28;20039;-91
2022/05/08 09:52:41;;;;;;;10.80;2.03;;;;;;;;;;4976364;28;20070;-91
2022/05/08 09:55:08;;;;;;;10.75;2.30;;;;;;;;;;4976382;28;20055;-89
2022/05/08 09:57:34;;;;;;;13.63;2.55;;;;;;;;;;4976226;28;20047;-88
2022/05/08 10:00:10;;;;;;;11.65;2.10;;;;;;;;;;4945294;28;20074;-90
2022/05/08 10:02:39;;;;;;;14.00;2.10;;;;;;;;;;4944318;28;20386;-89
2022/05/08 10:05:05;;;;;;;13.93;2.42;;;;;;;;;;4975970;28;20117;-89
2022/05/08 10:07:32;;;;;;;13.93;2.72;;;;;;;;;;4943681;28;20113;-89
2022/05/08 10:15:30;;;;;;;11.02;2.08;;;;;;;;;;4960210;28;20057;-90
2022/05/08 10:18:14;;;;;;;11.18;1.98;;;;;;;;;;4975931;28;20078;-89
2022/05/08 10:20:59;;;;;;;12.52;2.28;;;;;;;;;;4976061;28;20046;-92
2022/05/08 10:23:34;;;;;;;12.95;2.22;;;;;;;;;;4976187;28;20042;-90
2022/05/08 10:26:14;;;;;;;11.15;2.13;;;;;;;;;;4975972;28;20045;-89
2022/05/08 10:28:58;;;;;;;11.32;2.08;;;;;;;;;;4941244;29;20061;-88
2022/05/08 10:31:44;;;;;;;10.32;2.38;;;;;;;;;;4941074;29;20103;-90
2022/05/08 10:34:10;;;;;;;11.02;2.25;;;;;;;;;;4940937;29;20044;-89
2022/05/08 10:36:36;;;;;;;13.30;2.38;;;;;;;;;;4956487;28;20187;-87
2022/05/08 10:39:21;;;;;;;14.35;2.53;;;;;;;;;;4956506;29;20054;-88
2022/05/08 10:41:49;;;;;;;12.68;2.72;;;;;;;;;;4940684;29;20047;-91
2022/05/08 10:44:33;;;;;;;9.10;2.50;;;;;;;;;;4940657;29;20042;-90
2022/05/08 10:47:19;;;;;;;9.35;2.75;;;;;;;;;;4940338;29;20047;-88
2022/05/08 10:49:48;;;;;;;9.88;2.67;;;;;;;;;;4956570;29;20050;-90
2022/05/08 10:52:16;;;;;;;6.97;1.95;;;;;;;;;;4940835;29;20066;-90
2022/05/08 10:54:55;;;;;;;10.30;1.98;;;;;;;;;;4956378;28;20060;-90
2022/05/08 10:57:34;;;;;;;12.73;2.70;;;;;;;;;;4956447;29;20051;-92
2022/05/08 11:00:01;;;;;;;10.93;2.47;;;;;;;;;;4956338;29;20518;-91
2022/05/08 11:02:43;;;;;;;15.57;3.10;;;;;;;;;;4956109;29;20051;-89
2022/05/08 11:05:10;;;;;;;12.45;2.40;;;;;;;;;;4939816;29;20039;-90
2022/05/08 11:07:40;;;;;;;13.52;2.30;;;;;;;;;;4956466;29;20043;-90
2022/05/08 11:10:16;;;;;;;10.43;2.22;;;;;;;;;;4955939;29;20054;-90
2022/05/08 11:12:54;;;;;;;15.98;2.72;;;;;;;;;;4956734;29;20127;-89
2022/05/08 11:15:25;;;;;;;8.95;1.95;;;;;;;;;;4940637;29;20173;-88
2022/05/08 11:18:09;;;;;;;6.97;1.70;;;;;;;;;;4956168;29;20049;-90
2022/05/08 11:20:39;;;;;;;9.30;2.42;;;;;;;;;;4939559;29;20049;-88
2022/05/08 11:23:05;;;;;;;12.55;2.25;;;;;;;;;;4940130;29;20043;-90
2022/05/08 11:25:34;;;;;;;12.23;2.58;;;;;;;;;;4955670;28;20402;-90
2022/05/08 11:28:00;;;;;;;10.82;2.70;;;;;;;;;;4939664;29;20098;-89
2022/05/08 11:30:38;;;;;;;10.23;2.03;;;;;;;;;;4955697;29;20478;-90
2022/05/08 11:36:09;;;;;;;13.73;2.35;;;;;;;;;;4971732;28;20043;-88
2022/05/08 11:38:52;;;;;;;11.25;2.00;;;;;;;;;;4955841;29;20043;-90
2022/05/08 11:41:22;;;;;;;8.95;2.15;;;;;;;;;;4940728;29;20050;-94
2022/05/08 11:43:49;;;;;;;9.65;1.90;;;;;;;;;;4943021;29;20047;-89
2022/05/08 11:46:16;;;;;;;8.35;1.98;;;;;;;;;;4955791;28;20039;-88
2022/05/08 11:48:47;;;;;;;10.55;2.60;;;;;;;;;;4941188;29;20049;-91
2022/05/08 11:51:14;;;;;;;7.78;1.77;;;;;;;;;;4980054;28;20099;-89
2022/05/08 11:53:41;;;;;;;9.02;2.08;;;;;;;;;;4979855;28;20043;-91
2022/05/08 11:56:27;;;;;;;12.10;2.20;;;;;;;;;;4979968;28;20037;-88
2022/05/08 11:58:53;;;;;;;9.10;2.00;;;;;;;;;;4963598;28;20067;-89
2022/05/08 12:01:22;;;;;;;8.40;2.20;;;;;;;;;;4980503;28;20082;-90
2022/05/08 12:03:52;;;;;;;11.80;2.47;;;;;;;;;;4962867;28;20032;-92
2022/05/08 12:06:18;;;;;;;7.43;1.88;;;;;;;;;;4963591;28;20038;-91
2022/05/08 12:08:44;;;;;;;11.05;1.80;;;;;;;;;;4963219;28;20045;-91
2022/05/08 12:11:26;;;;;;;11.02;1.77;;;;;;;;;;4963540;28;20099;-92
2022/05/08 12:14:05;;;;;;;14.32;2.00;;;;;;;;;;4962830;29;20035;-89
2022/05/08 12:16:34;;;;;;;14.48;2.38;;;;;;;;;;4963594;28;20043;-94
2022/05/08 12:19:21;;;;;;;12.13;2.47;;;;;;;;;;4963377;28;20027;-92
2022/05/08 12:21:47;;;;;;;9.93;2.30;;;;;;;;;;4995928;28;20090;-93
2022/05/08 12:24:15;;;;;;;9.77;2.17;;;;;;;;;;4963390;28;20039;-93
2022/05/08 12:26:42;;;;;;;8.00;1.90;;;;;;;;;;4963357;28;20115;-93
2022/05/08 12:29:15;;;;;;;8.35;2.00;;;;;;;;;;4979003;28;20051;-93
2022/05/08 12:31:41;;;;;;;6.88;1.40;;;;;;;;;;4963185;28;20059;-94
2022/05/08 12:34:10;;;;;;;8.18;1.83;;;;;;;;;;4962980;28;20050;-95
2022/05/08 12:36:40;;;;;;;8.32;1.90;;;;;;;;;;4963327;29;20023;-94
2022/05/08 12:39:06;;;;;;;11.48;2.25;;;;;;;;;;4963027;28;20038;-92
2022/05/08 12:41:33;;;;;;;11.05;1.98;;;;;;;;;;4962590;29;20031;-92
2022/05/08 12:43:59;;;;;;;10.90;2.22;;;;;;;;;;4978764;28;20047;-93
2022/05/08 12:46:25;;;;;;;12.63;2.60;;;;;;;;;;4962019;28;20062;-93
2022/05/08 12:48:52;;;;;;;8.88;1.77;;;;;;;;;;4966814;28;20487;-93
2022/05/08 12:51:18;;;;;;;10.55;2.03;;;;;;;;;;4943051;29;20478;-92
2022/05/08 12:53:44;;;;;;;11.93;2.35;;;;;;;;;;4924534;29;20114;-93
2022/05/08 12:56:10;;;;;;;15.63;2.75;;;;;;;;;;4940305;29;20051;-93
2022/05/08 13:01:23;;;;;;;9.95;2.10;;;;;;;;;;4971564;28;20050;-92
2022/05/08 13:03:49;;;;;;;10.88;1.80;;;;;;;;;;4939453;29;20134;-93
2022/05/08 13:06:15;;;;;;;14.13;2.63;;;;;;;;;;4939054;29;20190;-92
2022/05/08 13:08:41;;;;;;;8.63;1.92;;;;;;;;;;4939003;29;20043;-91
2022/05/08 13:11:07;;;;;;;11.82;2.22;;;;;;;;;;4938979;29;20047;-95
2022/05/08 13:13:39;;;;;;;16.35;2.58;;;;;;;;;;4954373;29;20133;-92
2022/05/08 13:16:05;;;;;;;12.65;2.33;;;;;;;;;;4938707;29;20513;-92
2022/05/08 13:18:31;;;;;;;11.07;2.42;;;;;;;;;;4939405;29;20039;-93
2022/05/08 13:21:00;;;;;;;20.80;2.88;;;;;;;;;;4939166;29;20050;-92
2022/05/08 13:23:28;;;;;;;23.20;3.05;;;;;;;;;;4955248;29;20222;-93
2022/05/08 13:25:55;;;;;;;15.32;2.50;;;;;;;;;;4940167;29;20497;-94
2022/05/08 13:28:25;;;;;;;14.88;2.90;;;;;;;;;;4939892;29;20063;-92
2022/05/08 13:30:51;;;;;;;12.68;2.47;;;;;;;;;;4939642;29;20086;-94
2022/05/08 13:33:24;;;;;;;11.30;2.80;;;;;;;;;;4940378;29;20039;-93
2022/05/08 13:35:51;;;;;;;11.68;2.10;;;;;;;;;;4939301;29;20376;-93
2022/05/08 13:38:18;;;;;;;9.18;1.77;;;;;;;;;;4939273;29;20489;-93
2022/05/08 13:40:48;;;;;;;9.55;2.10;;;;;;;;;;4954250;29;20039;-92
2022/05/08 13:43:17;;;;;;;9.02;2.08;;;;;;;;;;4939060;29;20054;-93
2022/05/08 13:45:47;;;;;;;11.40;2.40;;;;;;;;;;4954208;28;20202;-93
2022/05/08 13:48:13;;;;;;;11.63;2.80;;;;;;;;;;4939002;29;20043;-94
2022/05/08 13:50:40;;;;;;;11.40;2.85;;;;;;;;;;4953980;29;20050;-94
2022/05/08 13:53:09;;;;;;;10.13;2.08;;;;;;;;;;4938265;29;20122;-92
2022/05/08 13:55:46;;;;;;;8.82;2.10;;;;;;;;;;4938252;29;20126;-93
2022/05/08 13:58:13;;;;;;;12.20;2.38;;;;;;;;;;4939987;29;20102;-95
2022/05/08 14:00:40;;;;;;;9.73;2.05;;;;;;;;;;4942432;29;20380;-92
2022/05/08 14:03:09;;;;;;;8.45;2.08;;;;;;;;;;4942185;29;20043;-93
2022/05/08 14:05:36;;;;;;;7.72;2.00;;;;;;;;;;4941751;29;20043;-93
2022/05/08 14:08:03;;;;;;;12.85;1.95;;;;;;;;;;4941853;29;20039;-93
2022/05/08 14:10:29;;;;;;;9.95;2.05;;;;;;;;;;4941887;29;20078;-92
2022/05/08 14:12:57;;;;;;;9.95;2.30;;;;;;;;;;4958518;29;20044;-93
2022/05/08 14:15:25;;;;;;;7.65;2.25;;;;;;;;;;4941664;29;20047;-93
2022/05/08 14:17:54;;;;;;;7.53;2.17;;;;;;;;;;4941935;29;20078;-94
2022/05/08 14:20:26;;;;;;;7.95;1.90;;;;;;;;;;4941688;29;20133;-93
2022/05/08 14:22:55;;;;;;;12.50;2.38;;;;;;;;;;4941762;29;20047;-93
2022/05/08 14:25:22;;;;;;;9.02;2.08;;;;;;;;;;4941758;29;20039;-92
2022/05/08 14:27:51;;;;;;;10.13;2.45;;;;;;;;;;4941751;29;20051;-93
2022/05/08 14:30:17;;;;;;;10.07;1.85;;;;;;;;;;4957548;29;20110;-93
2022/05/08 14:38:17;;;;;;;10.30;1.77;;;;;;;;;;4973293;28;20047;-92
2022/05/08 14:40:45;;;;;;;9.18;2.28;;;;;;;;;;4957310;29;20093;-93
2022/05/08 14:43:11;;;;;;;9.77;1.83;;;;;;;;;;4941568;29;20062;-93
2022/05/08 14:45:40;;;;;;;12.13;1.85;;;;;;;;;;4941234;29;20047;-94
2022/05/08 14:48:06;;;;;;;10.75;2.60;;;;;;;;;;4956739;29;20040;-94
2022/05/08 14:50:33;;;;;;;9.60;1.80;;;;;;;;;;4957013;29;20102;-92
2022/05/08 14:53:02;;;;;;;12.93;2.15;;;;;;;;;;4945950;29;20517;-93
2022/05/08 14:55:31;;;;;;;7.90;1.92;;;;;;;;;;4922024;29;20050;-94
2022/05/08 14:57:58;;;;;;;9.57;2.53;;;;;;;;;;4921248;29;20047;-94
2022/05/08 15:00:24;;;;;;;9.65;1.95;;;;;;;;;;4922185;29;20555;-92
2022/05/08 15:02:50;;;;;;;11.90;2.22;;;;;;;;;;4920706;29;20102;-93
2022/05/08 15:05:16;;;;;;;8.70;2.13;;;;;;;;;;4921259;29;20071;-93
2022/05/08 15:07:43;;;;;;;11.68;2.40;;;;;;;;;;4921075;29;20039;-93
2022/05/08 15:10:09;;;;;;;13.25;2.72;;;;;;;;;;4922501;29;20074;-93
2022/05/08 15:12:35;;;;;;;11.75;2.13;;;;;;;;;;4920923;29;20131;-92
2022/05/08 15:15:02;;;;;;;10.68;2.00;;;;;;;;;;4936404;29;20054;-91
2022/05/08 15:17:28;;;;;;;9.23;1.92;;;;;;;;;;4920694;29;20103;-91